createdAt,value
2023-05-22T00:00:26.707Z,13.30
2023-05-22T00:02:54.106Z,13.20
2023-05-22T00:05:21.578Z,13.20
2023-05-22T00:07:48.987Z,13.10
2023-05-22T00:10:16.400Z,12.90
2023-05-22T00:12:43.669Z,12.80
2023-05-22T00:15:11.653Z,12.80
2023-05-22T00:17:39.129Z,12.80
2023-05-22T00:20:08.065Z,12.80
2023-05-22T00:22:35.693Z,12.90
2023-05-22T00:25:07.545Z,12.90
2023-05-22T00:27:35.337Z,12.90
2023-05-22T00:30:03.687Z,12.70
2023-05-22T00:32:31.085Z,12.70
2023-05-22T00:34:58.510Z,12.50
2023-05-22T00:37:26.451Z,12.40
2023-05-22T00:39:53.928Z,12.30
2023-05-22T00:42:21.393Z,12.30
2023-05-22T00:44:48.789Z,12.20
2023-05-22T00:47:16.111Z,12.30
2023-05-22T00:49:44.055Z,12.20
2023-05-22T00:52:12.717Z,12.20
2023-05-22T00:54:40.201Z,12.20
2023-05-22T00:57:07.642Z,12.20
2023-05-22T00:59:36.280Z,12.10
2023-05-22T01:02:03.841Z,12.20
2023-05-22T01:04:32.770Z,12.10
2023-05-22T01:07:03.201Z,12.10
2023-05-22T01:09:30.682Z,12.10
2023-05-22T01:12:18.821Z,12.20
2023-05-22T01:15:13.650Z,12.20
2023-05-22T01:17:47.852Z,12.30
2023-05-22T01:20:38.208Z,12.20
2023-05-22T01:23:38.977Z,12.20
2023-05-22T01:26:43.774Z,12.20
2023-05-22T01:29:26.131Z,12.20
2023-05-22T01:31:57.527Z,12.10
2023-05-22T01:34:26.553Z,11.90
2023-05-22T01:36:54.793Z,11.90
2023-05-22T01:39:23.230Z,11.90
2023-05-22T01:41:50.944Z,12.00
2023-05-22T01:44:18.345Z,12.10
2023-05-22T01:46:45.696Z,12.00
2023-05-22T01:49:13.007Z,12.00
2023-05-22T01:51:59.045Z,12.10
2023-05-22T01:54:29.240Z,12.10
2023-05-22T01:57:14.817Z,12.20
2023-05-22T02:00:09.848Z,12.20
2023-05-22T02:02:39.400Z,12.30
2023-05-22T02:05:09.984Z,12.30
2023-05-22T02:07:39.545Z,12.40
2023-05-22T02:10:10.471Z,12.50
2023-05-22T02:12:38.520Z,12.50
2023-05-22T02:15:08.260Z,12.60
2023-05-22T02:17:41.983Z,12.70
2023-05-22T02:20:17.017Z,12.70
2023-05-22T02:22:46.145Z,12.80
2023-05-22T02:25:14.861Z,12.80
2023-05-22T02:27:43.546Z,12.90
2023-05-22T02:30:12.188Z,12.90
2023-05-22T02:32:40.349Z,12.90
2023-05-22T02:35:08.609Z,13.00
2023-05-22T02:37:36.373Z,12.90
2023-05-22T02:40:07.197Z,12.90
2023-05-22T02:42:34.882Z,12.80
2023-05-22T02:45:02.918Z,12.70
2023-05-22T02:47:30.216Z,12.70
2023-05-22T02:50:00.260Z,12.60
2023-05-22T02:52:28.432Z,12.60
2023-05-22T02:54:55.754Z,12.50
2023-05-22T02:57:23.065Z,12.50
2023-05-22T02:59:51.189Z,12.50
2023-05-22T03:02:19.893Z,12.40
2023-05-22T03:04:47.273Z,12.40
2023-05-22T03:07:14.550Z,12.50
2023-05-22T03:09:41.862Z,12.50
2023-05-22T03:12:09.731Z,12.40
2023-05-22T03:14:36.996Z,12.30
2023-05-22T03:17:04.306Z,12.20
2023-05-22T03:19:31.628Z,12.20
2023-05-22T03:21:58.927Z,12.10
2023-05-22T03:24:27.188Z,12.10
2023-05-22T03:26:54.522Z,12.00
2023-05-22T03:29:21.932Z,12.00
2023-05-22T03:31:49.250Z,12.00
2023-05-22T03:34:16.978Z,11.90
2023-05-22T03:36:45.203Z,11.90
2023-05-22T03:39:12.537Z,12.00
2023-05-22T03:41:39.779Z,12.00
2023-05-22T03:44:07.047Z,12.00
2023-05-22T03:46:34.369Z,12.10
2023-05-22T03:49:01.596Z,12.10
2023-05-22T03:51:28.931Z,12.10
2023-05-22T03:53:56.216Z,12.20
2023-05-22T03:56:23.536Z,12.20
2023-05-22T03:58:50.986Z,12.20
2023-05-22T04:01:18.318Z,12.20
2023-05-22T04:03:45.926Z,12.20
2023-05-22T04:06:13.867Z,12.20
2023-05-22T04:08:41.207Z,12.20
2023-05-22T04:11:08.552Z,12.30
2023-05-22T04:13:35.873Z,12.30
2023-05-22T04:16:04.581Z,12.40
2023-05-22T04:18:32.061Z,12.40
2023-05-22T04:20:59.326Z,12.50
2023-05-22T04:23:26.547Z,12.60
2023-05-22T04:25:53.877Z,12.70
2023-05-22T04:28:23.817Z,12.80
2023-05-22T04:30:51.193Z,12.90
2023-05-22T04:33:18.523Z,13.00
2023-05-22T04:35:45.800Z,13.10
2023-05-22T04:38:13.185Z,13.20
2023-05-22T04:40:40.675Z,13.30
2023-05-22T04:43:08.591Z,13.30
2023-05-22T04:45:35.948Z,13.40
2023-05-22T04:48:04.169Z,13.50
2023-05-22T04:50:32.901Z,13.60
2023-05-22T04:53:00.429Z,13.70
2023-05-22T04:55:27.716Z,13.80
2023-05-22T04:57:56.468Z,13.90
2023-05-22T05:00:26.574Z,14.00
2023-05-22T05:02:54.032Z,14.20
2023-05-22T05:05:21.941Z,14.30
2023-05-22T05:07:50.436Z,14.40
2023-05-22T05:10:18.074Z,14.50
2023-05-22T05:12:45.378Z,14.60
2023-05-22T05:15:12.712Z,14.70
2023-05-22T05:17:40.097Z,14.90
2023-05-22T05:20:09.376Z,14.90
2023-05-22T05:22:37.508Z,15.00
2023-05-22T05:25:05.632Z,15.10
2023-05-22T05:27:33.367Z,15.20
2023-05-22T05:30:00.732Z,15.40
2023-05-22T05:32:28.212Z,15.40
2023-05-22T05:34:56.720Z,15.60
2023-05-22T05:37:24.243Z,15.70
2023-05-22T05:39:51.555Z,15.80
2023-05-22T05:42:18.827Z,15.80
2023-05-22T05:44:46.098Z,15.90
2023-05-22T05:47:13.852Z,16.00
2023-05-22T05:49:41.205Z,16.10
2023-05-22T05:52:08.523Z,16.30
2023-05-22T05:54:35.800Z,16.40
2023-05-22T05:57:03.104Z,16.50
2023-05-22T05:59:32.129Z,16.70
2023-05-22T06:01:59.524Z,16.70
2023-05-22T06:04:28.291Z,16.80
2023-05-22T06:06:55.586Z,16.90
2023-05-22T06:09:22.846Z,17.00
2023-05-22T06:11:50.189Z,17.10
2023-05-22T06:14:17.430Z,17.10
2023-05-22T06:16:46.019Z,17.20
2023-05-22T06:19:14.696Z,17.30
2023-05-22T06:21:42.048Z,17.40
2023-05-22T06:24:09.457Z,17.50
2023-05-22T06:26:36.836Z,17.60
2023-05-22T06:29:04.240Z,17.80
2023-05-22T06:31:35.352Z,17.90
2023-05-22T06:34:02.877Z,18.00
2023-05-22T06:36:30.440Z,18.10
2023-05-22T06:38:57.903Z,18.30
2023-05-22T06:41:26.203Z,18.50
2023-05-22T06:43:53.476Z,18.50
2023-05-22T06:46:20.881Z,18.60
2023-05-22T06:48:48.235Z,18.80
2023-05-22T06:51:15.673Z,18.90
2023-05-22T06:53:42.913Z,18.90
2023-05-22T06:56:10.166Z,19.00
2023-05-22T06:58:37.454Z,19.10
2023-05-22T07:01:04.943Z,19.20
2023-05-22T07:03:32.158Z,19.40
2023-05-22T07:06:00.102Z,19.50
2023-05-22T07:08:29.684Z,19.50
2023-05-22T07:10:57.837Z,19.60
2023-05-22T07:13:25.124Z,19.70
2023-05-22T07:15:52.391Z,19.80
2023-05-22T07:18:19.659Z,19.80
2023-05-22T07:20:46.933Z,19.90
2023-05-22T07:23:14.234Z,20.00
2023-05-22T07:25:42.429Z,20.20
2023-05-22T07:28:10.816Z,20.20
2023-05-22T07:30:38.991Z,20.40
2023-05-22T07:33:06.588Z,20.40
2023-05-22T07:35:35.069Z,20.60
2023-05-22T07:38:02.512Z,20.70
2023-05-22T07:40:30.057Z,20.70
2023-05-22T07:42:57.336Z,20.70
2023-05-22T07:45:24.711Z,20.90
2023-05-22T07:47:54.078Z,21.00
2023-05-22T07:50:22.930Z,21.10
2023-05-22T07:52:50.648Z,21.20
2023-05-22T07:55:18.097Z,21.40
2023-05-22T07:57:45.693Z,21.40
2023-05-22T08:00:14.346Z,21.40
2023-05-22T08:02:42.096Z,21.10
2023-05-22T08:05:10.144Z,21.20
2023-05-22T08:07:37.846Z,21.40
2023-05-22T08:10:08.637Z,21.50
2023-05-22T08:12:35.931Z,21.40
2023-05-22T08:15:03.857Z,21.60
2023-05-22T08:17:31.248Z,21.70
2023-05-22T08:19:59.282Z,21.80
2023-05-22T08:22:26.773Z,21.90
2023-05-22T08:24:53.984Z,21.80
2023-05-22T08:27:21.288Z,21.90
2023-05-22T08:29:48.624Z,22.10
2023-05-22T08:32:15.904Z,22.30
2023-05-22T08:34:43.174Z,22.30
2023-05-22T08:37:10.574Z,22.30
2023-05-22T08:39:37.946Z,22.50
2023-05-22T08:42:05.699Z,22.60
2023-05-22T08:44:33.097Z,22.60
2023-05-22T08:47:02.109Z,22.70
2023-05-22T08:49:30.795Z,23.00
2023-05-22T08:52:07.977Z,22.90
2023-05-22T08:54:36.923Z,22.90
2023-05-22T08:57:05.598Z,23.00
2023-05-22T08:59:34.774Z,23.00
2023-05-22T09:02:06.559Z,22.80
2023-05-22T09:04:34.238Z,22.80
2023-05-22T09:07:06.011Z,22.80
2023-05-22T09:09:37.903Z,23.10
2023-05-22T09:12:09.312Z,23.10
2023-05-22T09:14:40.597Z,23.20
2023-05-22T09:17:10.058Z,23.40
2023-05-22T09:19:37.814Z,23.20
2023-05-22T09:22:06.461Z,23.00
2023-05-22T09:24:44.742Z,22.60
2023-05-22T09:27:12.590Z,22.50
2023-05-22T09:29:53.799Z,22.70
2023-05-22T09:32:21.145Z,23.10
2023-05-22T09:34:48.934Z,23.10
2023-05-22T09:37:19.112Z,23.30
2023-05-22T09:39:48.311Z,23.10
2023-05-22T09:42:17.621Z,23.00
2023-05-22T09:44:52.021Z,23.10
2023-05-22T09:47:19.400Z,23.40
2023-05-22T09:49:46.874Z,23.70
2023-05-22T09:52:15.664Z,23.80
2023-05-22T09:54:55.490Z,24.00
2023-05-22T09:57:25.093Z,24.10
2023-05-22T09:59:54.985Z,24.10
2023-05-22T10:02:27.130Z,24.30
2023-05-22T10:04:55.056Z,24.40
2023-05-22T10:07:24.546Z,24.40
2023-05-22T10:09:57.062Z,24.20
2023-05-22T10:12:25.612Z,24.30
2023-05-22T10:14:55.293Z,24.40
2023-05-22T10:17:24.316Z,24.50
2023-05-22T10:19:53.556Z,24.60
2023-05-22T10:22:22.681Z,24.50
2023-05-22T10:24:52.308Z,24.60
2023-05-22T10:27:19.592Z,24.70
2023-05-22T10:30:16.573Z,24.80
2023-05-22T10:33:18.266Z,24.70
2023-05-22T10:36:22.422Z,24.30
2023-05-22T10:39:07.759Z,24.50
2023-05-22T10:41:35.381Z,24.60
2023-05-22T10:44:03.812Z,24.70
2023-05-22T10:46:36.545Z,24.70
2023-05-22T10:49:03.973Z,24.80
2023-05-22T10:51:34.419Z,25.00
2023-05-22T10:54:02.606Z,24.70
2023-05-22T10:56:37.620Z,24.70
2023-05-22T10:59:08.139Z,24.90
2023-05-22T11:01:38.288Z,25.10
2023-05-22T11:04:09.036Z,25.20
2023-05-22T11:06:37.383Z,25.00
2023-05-22T11:09:33.903Z,25.10
2023-05-22T11:12:20.790Z,25.20
2023-05-22T11:14:56.390Z,25.30
2023-05-22T11:17:28.199Z,25.30
2023-05-22T11:20:08.406Z,25.30
2023-05-22T11:22:38.910Z,25.30
2023-05-22T11:25:09.278Z,25.30
2023-05-22T11:27:37.266Z,25.40
2023-05-22T11:30:05.106Z,25.40
2023-05-22T11:32:32.766Z,25.30
2023-05-22T11:35:00.963Z,25.30
2023-05-22T11:37:28.485Z,25.50
2023-05-22T11:39:57.304Z,25.60
2023-05-22T11:42:25.282Z,25.60
2023-05-22T11:44:52.573Z,25.70
2023-05-22T11:47:19.821Z,25.90
2023-05-22T11:49:47.266Z,25.90
2023-05-22T11:52:16.698Z,25.90
2023-05-22T11:54:47.680Z,25.80
2023-05-22T11:57:15.519Z,26.00
2023-05-22T11:59:49.634Z,26.00
2023-05-22T12:02:18.759Z,25.90
2023-05-22T12:04:46.491Z,26.00
2023-05-22T12:07:14.281Z,25.90
2023-05-22T12:09:42.866Z,26.10
2023-05-22T12:12:13.003Z,26.30
2023-05-22T12:14:44.692Z,26.20
2023-05-22T12:17:16.989Z,26.10
2023-05-22T12:19:44.998Z,26.30
2023-05-22T12:22:12.636Z,26.40
2023-05-22T12:24:47.604Z,26.20
2023-05-22T12:27:15.555Z,26.20
2023-05-22T12:29:43.400Z,26.20
2023-05-22T12:32:12.119Z,26.40
2023-05-22T12:34:47.221Z,26.50
2023-05-22T12:37:22.858Z,26.50
2023-05-22T12:39:59.695Z,26.50
2023-05-22T12:42:27.870Z,26.50
2023-05-22T12:44:56.474Z,26.60
2023-05-22T12:47:25.127Z,26.70
2023-05-22T12:49:52.796Z,26.90
2023-05-22T12:52:20.222Z,26.90
2023-05-22T12:54:47.712Z,26.90
2023-05-22T12:57:16.880Z,27.00
2023-05-22T12:59:44.297Z,27.20
2023-05-22T13:02:11.747Z,27.30
2023-05-22T13:04:38.996Z,27.40
2023-05-22T13:07:06.377Z,27.40
2023-05-22T13:09:33.696Z,27.00
2023-05-22T13:12:01.185Z,26.50
2023-05-22T13:14:28.733Z,26.50
2023-05-22T13:16:56.075Z,26.70
2023-05-22T13:19:23.401Z,26.90
2023-05-22T13:21:50.753Z,26.90
2023-05-22T13:24:18.009Z,27.20
2023-05-22T13:26:45.338Z,27.10
2023-05-22T13:29:12.783Z,27.30
2023-05-22T13:31:40.208Z,27.30
2023-05-22T13:34:07.540Z,27.30
2023-05-22T13:36:34.923Z,27.30
2023-05-22T13:39:02.204Z,27.00
2023-05-22T13:41:29.689Z,26.60
2023-05-22T13:43:56.992Z,26.60
2023-05-22T13:46:24.347Z,26.60
2023-05-22T13:48:51.631Z,26.60
2023-05-22T13:51:18.932Z,26.60
2023-05-22T13:53:46.248Z,26.60
2023-05-22T13:56:13.521Z,26.40
2023-05-22T13:58:40.812Z,25.90
2023-05-22T14:01:09.331Z,25.50
2023-05-22T14:03:36.675Z,25.50
2023-05-22T14:06:04.300Z,25.90
2023-05-22T14:08:31.509Z,26.30
2023-05-22T14:10:58.887Z,26.30
2023-05-22T14:13:26.181Z,26.50
2023-05-22T14:15:53.451Z,26.30
2023-05-22T14:18:20.913Z,26.10
2023-05-22T14:20:48.476Z,26.20
2023-05-22T14:23:15.967Z,26.30
2023-05-22T14:25:43.421Z,26.50
2023-05-22T14:28:14.188Z,26.30
2023-05-22T14:30:41.684Z,26.40
2023-05-22T14:33:09.119Z,26.60
2023-05-22T14:35:36.396Z,26.50
2023-05-22T14:38:03.628Z,26.50
2023-05-22T14:40:31.032Z,26.40
2023-05-22T14:42:58.471Z,26.10
2023-05-22T14:45:25.823Z,25.70
2023-05-22T14:47:53.354Z,25.70
2023-05-22T14:50:21.108Z,26.00
2023-05-22T14:52:49.653Z,26.30
2023-05-22T14:55:17.875Z,26.30
2023-05-22T14:57:45.269Z,26.50
2023-05-22T15:00:13.093Z,26.40
2023-05-22T15:02:41.195Z,26.40
2023-05-22T15:05:09.779Z,26.50
2023-05-22T15:07:44.825Z,26.50
2023-05-22T15:10:13.387Z,26.50
2023-05-22T15:12:40.708Z,26.60
2023-05-22T15:15:08.838Z,26.60
2023-05-22T15:17:36.385Z,26.60
2023-05-22T15:20:05.601Z,26.80
2023-05-22T15:22:35.553Z,26.80
2023-05-22T15:25:05.419Z,26.80
2023-05-22T15:27:35.083Z,26.90
2023-05-22T15:30:03.092Z,26.90
2023-05-22T15:32:32.265Z,27.00
2023-05-22T15:34:59.679Z,27.00
2023-05-22T15:37:28.609Z,27.00
2023-05-22T15:39:57.039Z,27.00
2023-05-22T15:42:24.661Z,27.20
2023-05-22T15:44:52.000Z,27.10
2023-05-22T15:47:19.296Z,27.10
2023-05-22T15:49:46.724Z,26.80
2023-05-22T15:52:14.017Z,26.80
2023-05-22T15:54:41.249Z,26.90
2023-05-22T15:57:08.540Z,26.80
2023-05-22T15:59:38.880Z,27.20
2023-05-22T16:02:06.178Z,27.20
2023-05-22T16:04:33.608Z,27.10
2023-05-22T16:07:00.961Z,27.50
2023-05-22T16:09:29.491Z,27.90
2023-05-22T16:11:57.585Z,28.50
2023-05-22T16:14:24.821Z,28.60
2023-05-22T16:16:52.207Z,28.40
2023-05-22T16:19:19.590Z,28.70
2023-05-22T16:21:46.958Z,29.00
2023-05-22T16:24:14.351Z,29.20
2023-05-22T16:26:41.785Z,29.70
2023-05-22T16:29:09.990Z,30.10
2023-05-22T16:31:37.515Z,30.20
2023-05-22T16:34:05.970Z,30.30
2023-05-22T16:36:33.290Z,30.60
2023-05-22T16:39:03.409Z,30.60
2023-05-22T16:41:30.947Z,30.10
2023-05-22T16:43:58.293Z,30.60
2023-05-22T16:46:27.789Z,30.10
2023-05-22T16:48:55.194Z,29.70
2023-05-22T16:51:22.480Z,29.60
2023-05-22T16:53:50.410Z,29.60
2023-05-22T16:56:20.411Z,29.60
2023-05-22T16:58:47.830Z,29.20
2023-05-22T17:01:15.549Z,29.10
2023-05-22T17:03:45.912Z,28.70
2023-05-22T17:06:13.277Z,28.70
2023-05-22T17:08:40.722Z,28.50
2023-05-22T17:11:07.971Z,28.50
2023-05-22T17:13:35.393Z,28.60
2023-05-22T17:16:02.862Z,28.40
2023-05-22T17:18:30.233Z,28.30
2023-05-22T17:21:00.442Z,28.40
2023-05-22T17:23:27.708Z,28.60
2023-05-22T17:25:55.324Z,28.20
2023-05-22T17:28:22.662Z,27.90
2023-05-22T17:30:50.039Z,27.90
2023-05-22T17:33:17.433Z,27.80
2023-05-22T17:35:47.502Z,27.80
2023-05-22T17:38:14.983Z,27.40
2023-05-22T17:40:46.094Z,27.10
2023-05-22T17:43:14.314Z,26.80
2023-05-22T17:45:42.004Z,26.20
2023-05-22T17:48:09.659Z,25.80
2023-05-22T17:50:37.593Z,25.40
2023-05-22T17:53:05.020Z,25.20
2023-05-22T17:55:32.296Z,24.70
2023-05-22T17:57:59.787Z,24.60
2023-05-22T18:00:27.155Z,24.30
2023-05-22T18:02:54.636Z,24.10
2023-05-22T18:05:24.685Z,23.90
2023-05-22T18:07:51.998Z,23.70
2023-05-22T18:10:24.148Z,23.60
2023-05-22T18:12:51.776Z,23.40
2023-05-22T18:15:19.163Z,23.30
2023-05-22T18:17:46.488Z,23.10
2023-05-22T18:20:13.927Z,22.90
2023-05-22T18:22:41.349Z,22.70
2023-05-22T18:25:11.403Z,22.60
2023-05-22T18:27:38.961Z,22.50
2023-05-22T18:30:08.362Z,22.40
2023-05-22T18:32:36.965Z,22.30
2023-05-22T18:35:05.291Z,22.10
2023-05-22T18:37:32.667Z,21.90
2023-05-22T18:39:59.991Z,21.70
2023-05-22T18:42:27.542Z,21.50
2023-05-22T18:44:54.916Z,21.40
2023-05-22T18:47:22.227Z,21.30
2023-05-22T18:49:49.553Z,21.10
2023-05-22T18:52:16.922Z,20.80
2023-05-22T18:54:44.836Z,20.70
2023-05-22T18:57:12.722Z,20.60
2023-05-22T18:59:40.907Z,20.50
2023-05-22T19:02:11.969Z,20.30
2023-05-22T19:04:39.529Z,20.10
2023-05-22T19:07:07.985Z,19.70
2023-05-22T19:09:35.476Z,19.60
2023-05-22T19:12:02.852Z,19.60
2023-05-22T19:14:30.206Z,19.40
2023-05-22T19:17:00.789Z,19.50
2023-05-22T19:19:28.089Z,19.50
2023-05-22T19:21:55.506Z,19.40
2023-05-22T19:24:23.001Z,19.30
2023-05-22T19:26:50.388Z,19.10
2023-05-22T19:29:17.859Z,18.80
2023-05-22T19:31:45.294Z,18.90
2023-05-22T19:34:13.449Z,18.90
2023-05-22T19:36:40.758Z,18.80
2023-05-22T19:39:08.267Z,18.80
2023-05-22T19:41:35.686Z,18.60
2023-05-22T19:44:03.065Z,18.40
2023-05-22T19:46:30.567Z,18.40
2023-05-22T19:49:03.133Z,18.20
2023-05-22T19:51:31.245Z,18.10
2023-05-22T19:53:58.468Z,18.10
2023-05-22T19:56:26.210Z,17.90
2023-05-22T19:58:53.562Z,17.70
2023-05-22T20:01:21.014Z,17.50
2023-05-22T20:03:48.542Z,17.60
2023-05-22T20:06:16.206Z,17.60
2023-05-22T20:08:46.132Z,17.60
2023-05-22T20:11:13.622Z,17.50
2023-05-22T20:13:40.936Z,17.20
2023-05-22T20:16:12.003Z,17.00
2023-05-22T20:18:42.394Z,17.00
2023-05-22T20:21:10.139Z,16.80
2023-05-22T20:23:37.637Z,16.70
2023-05-22T20:26:05.575Z,16.50
2023-05-22T20:28:32.874Z,16.50
2023-05-22T20:31:00.277Z,16.50
2023-05-22T20:33:28.074Z,16.50
2023-05-22T20:35:55.840Z,16.70
2023-05-22T20:38:23.200Z,16.80
2023-05-22T20:40:52.086Z,16.80
2023-05-22T20:43:21.949Z,16.60
2023-05-22T20:45:49.354Z,16.60
2023-05-22T20:48:16.775Z,16.40
2023-05-22T20:50:44.087Z,16.40
2023-05-22T20:53:12.390Z,16.30
2023-05-22T20:55:40.000Z,16.20
2023-05-22T20:58:10.482Z,15.80
2023-05-22T21:00:38.039Z,15.90
2023-05-22T21:03:05.400Z,15.90
2023-05-22T21:05:32.771Z,15.90
2023-05-22T21:08:00.149Z,16.00
2023-05-22T21:10:27.510Z,15.90
2023-05-22T21:12:54.783Z,15.90
2023-05-22T21:15:22.132Z,16.00
2023-05-22T21:17:49.568Z,15.90
2023-05-22T21:20:17.061Z,15.70
2023-05-22T21:22:44.359Z,15.70
2023-05-22T21:25:11.660Z,15.50
2023-05-22T21:27:38.996Z,15.50
2023-05-22T21:30:06.938Z,15.40
2023-05-22T21:32:34.174Z,15.30
2023-05-22T21:35:01.504Z,15.20
2023-05-22T21:37:28.774Z,15.30
2023-05-22T21:39:56.064Z,15.20
2023-05-22T21:42:25.852Z,15.20
2023-05-22T21:44:53.443Z,15.40
2023-05-22T21:47:20.815Z,15.40
2023-05-22T21:49:48.059Z,15.30
2023-05-22T21:52:16.217Z,15.10
2023-05-22T21:54:43.552Z,15.10
2023-05-22T21:57:10.864Z,15.00
2023-05-22T21:59:39.592Z,14.70
2023-05-22T22:02:07.039Z,14.80
2023-05-22T22:04:34.423Z,14.70
2023-05-22T22:07:01.683Z,14.80
2023-05-22T22:09:29.063Z,14.70
2023-05-22T22:11:56.472Z,14.70
2023-05-22T22:14:24.196Z,14.70
2023-05-22T22:16:54.610Z,14.60
2023-05-22T22:19:22.934Z,14.60
2023-05-22T22:21:50.916Z,14.40
2023-05-22T22:24:18.484Z,14.30
2023-05-22T22:26:47.958Z,14.20
2023-05-22T22:29:15.920Z,14.20
2023-05-22T22:31:43.168Z,14.20
2023-05-22T22:34:10.563Z,14.20
2023-05-22T22:36:40.400Z,14.30
2023-05-22T22:39:07.736Z,14.50
2023-05-22T22:41:35.021Z,14.50
2023-05-22T22:44:02.450Z,14.40
2023-05-22T22:46:29.758Z,14.40
2023-05-22T22:48:58.902Z,14.30
2023-05-22T22:51:26.186Z,14.20
2023-05-22T22:53:53.472Z,13.90
2023-05-22T22:56:20.925Z,13.90
2023-05-22T22:58:48.157Z,14.00
2023-05-22T23:01:15.453Z,13.90
2023-05-22T23:03:42.703Z,13.90
2023-05-22T23:06:09.926Z,13.90
2023-05-22T23:08:37.581Z,13.90
2023-05-22T23:11:05.170Z,14.00
2023-05-22T23:13:32.433Z,14.00
2023-05-22T23:15:59.977Z,13.90
2023-05-22T23:18:27.307Z,13.90
2023-05-22T23:20:54.607Z,13.90
2023-05-22T23:23:21.833Z,13.90
2023-05-22T23:25:49.079Z,14.00
2023-05-22T23:28:16.930Z,14.20
2023-05-22T23:30:44.211Z,14.00
2023-05-22T23:33:11.744Z,13.90
2023-05-22T23:35:39.356Z,13.70
2023-05-22T23:38:06.812Z,13.70
2023-05-22T23:40:34.053Z,13.70
2023-05-22T23:43:01.452Z,13.50
2023-05-22T23:45:28.750Z,13.40
2023-05-22T23:47:56.033Z,13.40
2023-05-22T23:50:23.300Z,13.40
2023-05-22T23:52:50.607Z,13.40
2023-05-22T23:55:17.924Z,13.40
2023-05-22T23:57:45.369Z,13.30
